Buchanan Airport

Jump to: basic info | weather | comments

Related pages: nearby airports | nearby navaids | notams | map

Basic information (top)

Codes: UCN GLBU
Location: lon 5.167650, lat -9.283470, elev 41 ft / 12 m msl
Status: small_airport
Scheduled airline service: no
Links: Wikipedia Mobile

Weather (top)

Current conditions for Roberts International Airport 91nm (168km) NW (rec'd 2014/07/31 15:00Z):

GLRB 311500Z 20005KT 9999 BKN014 27/24 Q1014 NOSIG

Airport forecast for Roberts International Airport 91nm (168km) NW (rec'd 2014/07/31 12:51Z):

TAF TAF GLRB 311000Z 3112/0118 24010KT 9999 BKN016 FEW024CB 
      TEMPO 3114/3119 22008KT 7000 RA SCT006 BKN015 FEW023CB 
      BECMG 3120/3122 00000KT 9000 BKN013

Latest comments (top)

No comments yet for Buchanan Airport

More... (top)

See also NOTAMs and nearby airports and navaids, or visit the Buchanan Airport page at the main OurAirports website..